Time;durP1;ratioP1;P1;durP2;ratioP2;P2;SDS_P1;SDS_P2;PMS_P1;PMS_P2;Temp;Humidity;BMP_temperature;BMP_pressure;BME280_temperature;BME280_humidity;BME280_pressure;Samples;Min_cycle;Max_cycle;Signal;HPM_P1;HPM_P2
2024/01/19 00:01:00;;;;;;;46.90;25.17;;;12.00;99.90;;;;;;4954763;28;20471;-75
2024/01/19 00:03:26;;;;;;;45.38;23.60;;;12.10;99.90;;;;;;4971756;28;20018;-73
2024/01/19 00:05:52;;;;;;;46.63;26.02;;;12.10;99.90;;;;;;4967461;28;20033;-73
2024/01/19 00:08:17;;;;;;;49.08;28.23;;;12.10;99.90;;;;;;4973835;28;20697;-75
2024/01/19 00:10:43;;;;;;;56.60;31.17;;;12.10;99.90;;;;;;4960510;28;20027;-74
2024/01/19 00:13:09;;;;;;;56.33;32.63;;;12.20;99.90;;;;;;4951844;29;20130;-73
2024/01/19 00:15:35;;;;;;;53.38;31.17;;;12.20;99.90;;;;;;4954476;29;20055;-72
2024/01/19 00:18:07;;;;;;;46.85;29.90;;;12.20;99.90;;;;;;4936570;29;20043;-74
2024/01/19 00:20:32;;;;;;;46.03;28.48;;;12.20;99.90;;;;;;4953184;29;20042;-74
2024/01/19 00:22:58;;;;;;;50.25;29.55;;;12.30;99.90;;;;;;4967366;28;20026;-77
2024/01/19 00:25:29;;;;;;;47.85;27.05;;;12.30;99.90;;;;;;4968373;28;20129;-73
2024/01/19 00:27:55;;;;;;;45.00;27.73;;;12.30;99.90;;;;;;4942229;29;20023;-74
2024/01/19 00:30:21;;;;;;;54.13;28.55;;;12.30;99.90;;;;;;4965322;28;20581;-72
2024/01/19 00:32:47;;;;;;;62.58;35.72;;;12.30;99.90;;;;;;4956031;28;20395;-73
2024/01/19 00:35:13;;;;;;;42.83;25.83;;;12.30;99.90;;;;;;4973213;28;20050;-73
2024/01/19 00:37:46;;;;;;;43.97;26.65;;;12.20;99.90;;;;;;4973473;28;20031;-71
2024/01/19 00:40:12;;;;;;;46.35;29.27;;;12.10;99.90;;;;;;4955843;28;20097;-73
2024/01/19 00:42:42;;;;;;;51.88;31.00;;;12.00;99.90;;;;;;4955254;28;20071;-71
2024/01/19 00:45:11;;;;;;;52.38;29.95;;;11.90;99.90;;;;;;4965613;28;20471;-74
2024/01/19 00:47:37;;;;;;;46.78;31.88;;;11.90;99.90;;;;;;4953969;29;20031;-78
2024/01/19 00:50:08;;;;;;;38.45;23.60;;;11.90;99.90;;;;;;4956845;28;20030;-73
2024/01/19 00:52:34;;;;;;;38.80;24.00;;;11.90;99.90;;;;;;4954252;28;20035;-72
2024/01/19 00:55:00;;;;;;;45.50;25.08;;;12.00;99.90;;;;;;4963879;28;20031;-72
2024/01/19 00:57:26;;;;;;;46.10;29.35;;;12.00;99.90;;;;;;4939138;28;20027;-73
2024/01/19 00:59:54;;;;;;;58.95;33.17;;;12.00;99.90;;;;;;4955483;28;20096;-73
2024/01/19 01:02:21;;;;;;;46.25;29.40;;;12.00;99.90;;;;;;4953722;29;20031;-71
2024/01/19 01:04:47;;;;;;;54.42;32.67;;;12.00;99.90;;;;;;4953815;29;20476;-70
2024/01/19 01:07:13;;;;;;;54.83;32.72;;;11.90;99.90;;;;;;4970534;28;20390;-71
2024/01/19 01:09:39;;;;;;;52.70;32.25;;;12.00;99.90;;;;;;4954074;29;20031;-72
2024/01/19 01:12:05;;;;;;;61.60;35.90;;;12.00;99.90;;;;;;4946922;28;20066;-70
2024/01/19 01:14:31;;;;;;;59.13;33.83;;;12.00;99.90;;;;;;4934897;29;20039;-73
2024/01/19 01:16:57;;;;;;;45.35;26.75;;;12.00;99.90;;;;;;4934631;29;20399;-73
2024/01/19 01:19:23;;;;;;;43.67;23.65;;;12.00;99.90;;;;;;4934237;29;20036;-72
2024/01/19 01:21:49;;;;;;;41.65;24.10;;;11.90;99.90;;;;;;4935833;29;20031;-70
2024/01/19 01:24:14;;;;;;;43.88;26.13;;;12.00;99.90;;;;;;4938216;29;20039;-72
2024/01/19 01:26:40;;;;;;;48.38;27.15;;;11.90;99.90;;;;;;4938550;29;20024;-79
2024/01/19 01:29:06;;;;;;;59.60;33.30;;;11.90;99.90;;;;;;4918710;29;20048;-76
2024/01/19 01:31:32;;;;;;;49.20;30.85;;;11.80;99.90;;;;;;4938525;29;20037;-74
2024/01/19 01:33:58;;;;;;;52.72;31.33;;;11.90;99.90;;;;;;4937728;29;20039;-75
2024/01/19 01:36:24;;;;;;;41.60;27.08;;;11.80;99.90;;;;;;4945194;29;20102;-74
2024/01/19 01:38:49;;;;;;;43.40;27.63;;;11.70;99.90;;;;;;4945668;29;20027;-74
2024/01/19 01:41:15;;;;;;;41.45;26.63;;;11.70;99.90;;;;;;4938106;29;20139;-74
2024/01/19 01:43:41;;;;;;;49.08;31.70;;;11.70;99.90;;;;;;4954993;29;20035;-74
2024/01/19 01:46:07;;;;;;;52.85;31.48;;;11.60;99.90;;;;;;4956902;29;20037;-74
2024/01/19 01:48:33;;;;;;;50.92;28.83;;;11.60;99.90;;;;;;4956859;29;20054;-74
2024/01/19 01:51:00;;;;;;;101.60;56.08;;;11.60;99.90;;;;;;4956700;29;20058;-75
2024/01/19 01:53:26;;;;;;;51.85;29.30;;;11.60;99.90;;;;;;4956486;29;20122;-75
2024/01/19 01:55:52;;;;;;;45.10;26.77;;;11.60;99.90;;;;;;4943957;29;20067;-75
2024/01/19 01:58:19;;;;;;;52.33;29.25;;;11.70;99.90;;;;;;4953058;29;20024;-75
2024/01/19 02:00:45;;;;;;;42.63;24.10;;;11.70;99.90;;;;;;4937538;29;20032;-74
2024/01/19 02:03:12;;;;;;;47.75;24.75;;;11.80;99.90;;;;;;4937410;29;20026;-75
2024/01/19 02:05:41;;;;;;;48.72;24.40;;;11.80;99.90;;;;;;4937302;29;20028;-74
2024/01/19 02:08:07;;;;;;;43.55;20.38;;;11.90;99.90;;;;;;4951436;29;20020;-75
2024/01/19 02:10:33;;;;;;;30.88;16.52;;;11.90;99.90;;;;;;4956458;29;20448;-73
2024/01/19 02:12:59;;;;;;;34.75;17.80;;;12.00;99.90;;;;;;4957241;28;20047;-74
2024/01/19 02:15:26;;;;;;;34.72;17.75;;;12.10;99.90;;;;;;4956721;28;20027;-77
2024/01/19 02:17:53;;;;;;;32.95;20.77;;;12.10;99.90;;;;;;4962918;28;20562;-76
2024/01/19 02:20:19;;;;;;;37.38;22.65;;;12.10;99.90;;;;;;4975371;28;20045;-73
2024/01/19 02:22:46;;;;;;;60.85;39.55;;;12.00;99.90;;;;;;4967239;28;20031;-73
2024/01/19 02:25:13;;;;;;;66.50;43.92;;;11.90;99.90;;;;;;4951405;28;20046;-74
2024/01/19 02:27:39;;;;;;;44.30;25.15;;;11.90;99.90;;;;;;4975633;28;20379;-74
2024/01/19 02:30:10;;;;;;;35.42;21.25;;;11.90;99.90;;;;;;4975596;28;20069;-73
2024/01/19 02:32:36;;;;;;;44.30;27.58;;;11.90;99.90;;;;;;4975575;28;20029;-76
2024/01/19 02:35:02;;;;;;;44.15;26.02;;;11.80;99.90;;;;;;4975015;28;20109;-76
2024/01/19 02:37:28;;;;;;;36.10;20.33;;;11.60;99.90;;;;;;4958279;28;20038;-73
2024/01/19 02:39:54;;;;;;;34.15;18.52;;;11.50;99.90;;;;;;4975001;28;20849;-73
2024/01/19 02:42:20;;;;;;;30.90;16.60;;;11.50;99.90;;;;;;4975397;28;20031;-75
2024/01/19 02:44:46;;;;;;;24.35;12.80;;;11.50;99.90;;;;;;4956708;28;20074;-73
2024/01/19 02:47:12;;;;;;;21.58;10.38;;;11.60;99.90;;;;;;4960909;28;20376;-73
2024/01/19 02:49:38;;;;;;;19.77;9.02;;;11.70;99.90;;;;;;4973018;28;20030;-74
2024/01/19 02:52:04;;;;;;;20.33;8.15;;;11.80;99.90;;;;;;4973291;28;20027;-73
2024/01/19 02:54:30;;;;;;;26.30;11.52;;;11.90;99.90;;;;;;4971535;28;20037;-74
2024/01/19 02:56:56;;;;;;;36.72;19.65;;;11.90;99.90;;;;;;4971595;28;20031;-73
2024/01/19 02:59:22;;;;;;;35.15;20.30;;;12.00;99.90;;;;;;4973399;28;20070;-72
2024/01/19 03:01:47;;;;;;;40.78;23.67;;;12.00;99.90;;;;;;4972663;28;20707;-73
2024/01/19 03:04:13;;;;;;;40.63;24.98;;;12.00;99.90;;;;;;4972855;28;20019;-74
2024/01/19 03:06:39;;;;;;;42.83;25.23;;;11.90;99.90;;;;;;4972706;28;20027;-72
2024/01/19 03:09:05;;;;;;;36.78;20.88;;;12.00;99.90;;;;;;4955507;28;20039;-74
2024/01/19 03:11:31;;;;;;;30.35;17.08;;;12.00;99.90;;;;;;4972335;28;20031;-77
2024/01/19 03:13:57;;;;;;;32.97;20.02;;;11.90;99.90;;;;;;4972755;28;20294;-74
2024/01/19 03:16:23;;;;;;;33.78;19.80;;;11.90;99.90;;;;;;4955208;28;20380;-75
2024/01/19 03:18:48;;;;;;;64.57;39.90;;;11.90;99.90;;;;;;4972546;28;20035;-72
2024/01/19 03:21:15;;;;;;;46.25;26.35;;;11.80;99.90;;;;;;4972230;28;20035;-75
2024/01/19 03:23:41;;;;;;;41.20;21.70;;;11.80;99.90;;;;;;4972410;28;20030;-73
2024/01/19 03:26:07;;;;;;;37.35;22.85;;;11.80;99.90;;;;;;4972773;28;20040;-72
2024/01/19 03:28:33;;;;;;;42.58;28.58;;;11.90;99.90;;;;;;4971918;28;20038;-72
2024/01/19 03:30:59;;;;;;;47.78;30.35;;;11.90;99.90;;;;;;4972362;28;20117;-73
2024/01/19 03:33:26;;;;;;;47.45;29.42;;;11.80;99.90;;;;;;4964559;28;20062;-76
2024/01/19 03:35:51;;;;;;;37.50;25.70;;;11.70;99.90;;;;;;4972137;28;20030;-73
2024/01/19 03:38:18;;;;;;;38.78;23.02;;;11.70;99.90;;;;;;4971964;28;20025;-73
2024/01/19 03:40:44;;;;;;;24.15;13.40;;;11.70;99.90;;;;;;4972247;28;20125;-72
2024/01/19 03:43:10;;;;;;;28.40;16.98;;;11.70;99.90;;;;;;4958017;28;20098;-75
2024/01/19 03:45:36;;;;;;;26.85;14.65;;;11.70;99.90;;;;;;4953841;28;20035;-73
2024/01/19 03:48:03;;;;;;;23.77;12.40;;;11.70;99.90;;;;;;4953980;28;20081;-72
2024/01/19 03:50:28;;;;;;;20.10;8.77;;;11.70;99.90;;;;;;4953705;28;20055;-73
2024/01/19 03:52:54;;;;;;;24.10;8.85;;;11.70;99.90;;;;;;4954031;28;20063;-75
2024/01/19 03:55:20;;;;;;;10.00;2.75;;;11.70;99.90;;;;;;4953662;28;20039;-74
2024/01/19 03:57:46;;;;;;;6.93;2.88;;;11.90;99.90;;;;;;4970683;28;20027;-73
2024/01/19 04:00:12;;;;;;;9.75;3.75;;;12.00;99.90;;;;;;4971669;28;20046;-72
2024/01/19 04:02:38;;;;;;;11.80;4.65;;;12.00;99.90;;;;;;4971747;28;20027;-75
2024/01/19 04:05:04;;;;;;;14.02;5.18;;;12.00;99.90;;;;;;4971366;28;20030;-72
2024/01/19 04:07:30;;;;;;;15.00;6.85;;;11.90;99.90;;;;;;4971964;28;20018;-75
2024/01/19 04:09:56;;;;;;;21.38;11.15;;;11.90;99.90;;;;;;4971577;28;20178;-74
2024/01/19 04:12:22;;;;;;;11.30;5.13;;;11.80;99.90;;;;;;4971324;28;20055;-73
2024/01/19 04:14:49;;;;;;;15.48;6.03;;;11.60;99.90;;;;;;4954477;28;20022;-76
2024/01/19 04:17:15;;;;;;;11.25;5.93;;;11.50;99.90;;;;;;4953547;28;20126;-73
2024/01/19 04:19:41;;;;;;;12.25;6.00;;;11.50;99.90;;;;;;4953598;28;20072;-72
2024/01/19 04:22:07;;;;;;;12.43;5.95;;;11.40;99.90;;;;;;4970758;28;20047;-72
2024/01/19 04:24:33;;;;;;;14.25;5.68;;;11.30;99.90;;;;;;4973725;28;20035;-73
2024/01/19 04:26:59;;;;;;;11.77;5.13;;;11.30;99.90;;;;;;4973225;28;20023;-75
2024/01/19 04:29:25;;;;;;;14.73;6.78;;;11.20;99.90;;;;;;4973631;28;20034;-75
2024/01/19 04:31:52;;;;;;;12.32;6.00;;;11.10;99.90;;;;;;4973395;28;20031;-75
2024/01/19 04:34:18;;;;;;;11.77;5.50;;;11.00;99.90;;;;;;4973497;28;20051;-79
2024/01/19 04:36:45;;;;;;;15.60;6.40;;;10.90;99.90;;;;;;4973279;28;20065;-74
2024/01/19 04:39:12;;;;;;;15.40;5.95;;;10.90;99.90;;;;;;4973521;28;20042;-74
2024/01/19 04:41:38;;;;;;;18.02;6.28;;;10.90;99.90;;;;;;4955063;28;20129;-73
2024/01/19 04:44:04;;;;;;;12.43;6.13;;;10.90;99.90;;;;;;4973082;28;20526;-73
2024/01/19 04:46:30;;;;;;;12.18;5.68;;;10.80;99.90;;;;;;4973346;28;20048;-74
2024/01/19 04:48:55;;;;;;;12.10;6.07;;;10.70;99.90;;;;;;4973204;28;20023;-76
2024/01/19 04:51:21;;;;;;;14.43;7.10;;;10.70;99.90;;;;;;4973046;28;20407;-76
2024/01/19 04:53:47;;;;;;;15.63;8.70;;;10.60;99.90;;;;;;4955831;28;20043;-73
2024/01/19 04:56:14;;;;;;;12.98;6.38;;;10.60;99.90;;;;;;4973796;28;20023;-75
2024/01/19 04:58:40;;;;;;;14.68;5.95;;;10.60;99.90;;;;;;4976612;28;20085;-75
2024/01/19 05:01:06;;;;;;;13.15;7.03;;;10.50;99.90;;;;;;4969463;28;20074;-73
2024/01/19 05:03:32;;;;;;;15.18;7.28;;;10.40;99.90;;;;;;4975332;28;20034;-73
2024/01/19 05:05:58;;;;;;;13.63;7.30;;;10.20;99.90;;;;;;4966246;28;20033;-74
2024/01/19 05:08:24;;;;;;;18.40;9.38;;;;;;;;;;4976766;28;20030;-73
2024/01/19 05:10:50;;;;;;;13.95;7.68;;;10.00;99.90;;;;;;4976756;28;20023;-73
2024/01/19 05:13:16;;;;;;;16.77;9.75;;;9.90;99.90;;;;;;4958143;28;20052;-79
2024/01/19 05:15:43;;;;;;;17.30;10.82;;;9.80;99.90;;;;;;4955978;29;20042;-78
2024/01/19 05:18:09;;;;;;;16.17;8.60;;;9.70;99.90;;;;;;4942885;29;20038;-73
2024/01/19 05:20:35;;;;;;;14.25;8.60;;;9.60;99.90;;;;;;4957041;29;20034;-73
2024/01/19 05:23:01;;;;;;;13.43;7.40;;;9.50;99.90;;;;;;4957358;29;20035;-73
2024/01/19 05:25:27;;;;;;;12.68;7.35;;;9.50;99.90;;;;;;4956949;29;20035;-75
2024/01/19 05:27:53;;;;;;;12.75;7.43;;;9.30;99.90;;;;;;4957267;29;20102;-79
2024/01/19 05:30:20;;;;;;;13.10;7.10;;;9.20;99.90;;;;;;4957122;29;20024;-73
2024/01/19 05:32:46;;;;;;;12.43;7.03;;;9.20;99.90;;;;;;4957256;29;20054;-75
2024/01/19 05:35:12;;;;;;;11.43;6.72;;;9.10;99.90;;;;;;4956751;29;20070;-75
2024/01/19 05:37:38;;;;;;;10.30;6.22;;;9.10;99.90;;;;;;4956628;29;20038;-77
2024/01/19 05:40:04;;;;;;;13.45;7.15;;;9.00;99.90;;;;;;4957118;29;20490;-75
2024/01/19 05:42:30;;;;;;;14.82;8.15;;;9.00;99.90;;;;;;4956294;29;20106;-75
2024/01/19 05:44:56;;;;;;;13.13;7.10;;;9.00;99.90;;;;;;4956933;29;20111;-76
2024/01/19 05:47:22;;;;;;;13.45;7.72;;;9.00;99.90;;;;;;4956461;29;20031;-79
2024/01/19 05:49:48;;;;;;;14.57;8.27;;;8.90;99.90;;;;;;4956971;29;20440;-76
2024/01/19 05:52:13;;;;;;;14.32;7.75;;;8.80;99.90;;;;;;4956414;29;20023;-78
2024/01/19 05:54:39;;;;;;;17.10;9.77;;;8.80;99.90;;;;;;4956297;29;20035;-77
2024/01/19 05:57:05;;;;;;;19.33;11.15;;;8.80;99.90;;;;;;4956157;29;20082;-82
2024/01/19 05:59:34;;;;;;;25.05;13.93;;;8.60;99.90;;;;;;4956768;29;20039;-75
2024/01/19 06:02:01;;;;;;;25.05;15.93;;;8.60;99.90;;;;;;4935152;29;20030;-76
2024/01/19 06:04:27;;;;;;;23.70;14.88;;;8.40;99.90;;;;;;4937359;29;20046;-75
2024/01/19 06:06:53;;;;;;;24.73;14.43;;;8.20;99.90;;;;;;4922461;29;20028;-74
2024/01/19 06:09:19;;;;;;;32.88;20.08;;;8.10;99.90;;;;;;4953988;29;20031;-75
2024/01/19 06:11:45;;;;;;;33.00;18.75;;;8.00;99.90;;;;;;4956571;28;20043;-75
2024/01/19 06:14:10;;;;;;;21.75;14.43;;;7.90;99.90;;;;;;4955963;29;20038;-74
2024/01/19 06:16:39;;;;;;;19.58;12.07;;;7.90;99.90;;;;;;4956292;29;20025;-78
2024/01/19 06:19:12;;;;;;;21.55;12.02;;;7.80;99.90;;;;;;4916482;29;20390;-74
2024/01/19 06:21:38;;;;;;;20.65;12.93;;;7.70;99.90;;;;;;4922156;29;20100;-75
2024/01/19 06:24:04;;;;;;;22.25;14.25;;;7.70;99.90;;;;;;4949764;29;20100;-75
2024/01/19 06:26:32;;;;;;;21.65;12.35;;;7.70;99.90;;;;;;4956206;29;20615;-75
2024/01/19 06:29:02;;;;;;;20.67;13.10;;;7.70;99.90;;;;;;4956172;29;20035;-76
2024/01/19 06:31:27;;;;;;;19.42;11.95;;;7.60;99.90;;;;;;4955833;29;20034;-76
2024/01/19 06:33:53;;;;;;;20.00;12.57;;;7.40;99.90;;;;;;4956064;29;20027;-76
2024/01/19 06:36:19;;;;;;;21.30;13.70;;;7.40;99.90;;;;;;4955668;29;20054;-75
2024/01/19 06:38:46;;;;;;;22.92;13.95;;;7.40;99.90;;;;;;4956013;29;20027;-80
2024/01/19 06:41:12;;;;;;;21.17;13.68;;;7.20;99.90;;;;;;4955853;29;20047;-77
2024/01/19 06:43:38;;;;;;;21.08;13.23;;;7.20;99.90;;;;;;4955222;29;20031;-77
2024/01/19 06:46:05;;;;;;;22.02;14.20;;;7.20;99.90;;;;;;4948859;29;20498;-75
2024/01/19 06:48:31;;;;;;;30.63;16.35;;;7.20;99.90;;;;;;4955151;29;20038;-75
2024/01/19 06:50:57;;;;;;;22.63;13.30;;;7.10;99.90;;;;;;4951535;29;20095;-77
2024/01/19 06:53:23;;;;;;;21.42;12.82;;;7.00;99.90;;;;;;4936445;29;20067;-78
2024/01/19 06:55:49;;;;;;;21.65;12.68;;;6.90;99.90;;;;;;4947062;29;20095;-78
2024/01/19 06:58:20;;;;;;;20.65;13.68;;;6.80;99.90;;;;;;4936988;29;20098;-75
2024/01/19 07:00:46;;;;;;;22.45;15.45;;;6.70;99.90;;;;;;4931684;29;20393;-74
2024/01/19 07:03:12;;;;;;;23.92;15.10;;;6.40;99.90;;;;;;4950178;29;20041;-75
2024/01/19 07:05:42;;;;;;;21.38;12.32;;;6.30;99.90;;;;;;4936548;29;20042;-81
2024/01/19 07:08:09;;;;;;;21.27;13.05;;;6.30;99.90;;;;;;4955111;29;20042;-75
2024/01/19 07:10:35;;;;;;;22.25;11.70;;;6.30;99.90;;;;;;4954828;29;20055;-77
2024/01/19 07:13:00;;;;;;;19.35;11.48;;;6.30;99.90;;;;;;4954996;28;20530;-74
2024/01/19 07:15:27;;;;;;;19.77;11.05;;;6.30;99.90;;;;;;4954916;29;20028;-77
2024/01/19 07:17:53;;;;;;;20.88;12.70;;;6.20;99.90;;;;;;4955298;29;20027;-76
2024/01/19 07:20:18;;;;;;;20.92;13.30;;;6.10;99.90;;;;;;4953441;28;20490;-75
2024/01/19 07:22:44;;;;;;;21.83;12.85;;;6.10;99.90;;;;;;4934435;29;20119;-75
2024/01/19 07:25:10;;;;;;;25.55;13.43;;;6.10;99.90;;;;;;4953237;29;20463;-75
2024/01/19 07:27:36;;;;;;;19.80;12.75;;;6.10;99.90;;;;;;4954976;29;20019;-75
2024/01/19 07:30:03;;;;;;;17.77;10.50;;;6.10;99.90;;;;;;4954910;29;20043;-76
2024/01/19 07:32:28;;;;;;;20.08;10.77;;;6.10;99.90;;;;;;4943791;29;20019;-76
2024/01/19 07:34:54;;;;;;;18.40;10.52;;;6.00;99.90;;;;;;4934189;29;20506;-75
2024/01/19 07:37:22;;;;;;;21.27;12.38;;;5.80;99.90;;;;;;4954133;29;20603;-75
2024/01/19 07:39:48;;;;;;;22.27;12.63;;;5.80;99.90;;;;;;4934753;29;20099;-74
2024/01/19 07:42:14;;;;;;;20.35;12.75;;;5.80;99.90;;;;;;4953324;29;20075;-74
2024/01/19 07:44:43;;;;;;;20.42;12.43;;;5.80;99.90;;;;;;4934187;29;20047;-75
2024/01/19 07:47:09;;;;;;;22.77;13.40;;;5.70;99.90;;;;;;4952594;29;20026;-74
2024/01/19 07:49:34;;;;;;;27.85;15.73;;;5.70;99.90;;;;;;4954659;29;20035;-78
2024/01/19 07:52:00;;;;;;;26.02;16.90;;;5.70;99.90;;;;;;4954282;29;20066;-74
2024/01/19 07:54:26;;;;;;;31.77;20.85;;;5.70;99.90;;;;;;4954388;29;20035;-75
2024/01/19 07:56:52;;;;;;;29.52;16.67;;;5.60;99.90;;;;;;4949075;29;20038;-74
2024/01/19 07:59:18;;;;;;;39.58;24.63;;;5.50;99.90;;;;;;4953317;29;20130;-75
2024/01/19 08:01:44;;;;;;;31.38;20.13;;;5.40;99.90;;;;;;4954260;29;20110;-74
2024/01/19 08:04:10;;;;;;;29.05;17.08;;;5.40;99.90;;;;;;4954263;29;20496;-75
2024/01/19 08:06:36;;;;;;;25.95;17.02;;;5.30;99.90;;;;;;4953774;29;20034;-77
2024/01/19 08:09:02;;;;;;;22.13;13.20;;;5.20;99.90;;;;;;4954372;29;20031;-75
2024/01/19 08:11:28;;;;;;;22.60;13.00;;;5.10;99.90;;;;;;4954268;28;20031;-76
2024/01/19 08:13:54;;;;;;;21.20;12.82;;;5.10;99.90;;;;;;4954007;29;20051;-75
2024/01/19 08:16:19;;;;;;;20.80;11.60;;;5.00;99.90;;;;;;4954087;29;20047;-74
2024/01/19 08:18:45;;;;;;;21.00;12.15;;;5.00;99.90;;;;;;4953471;29;20035;-74
2024/01/19 08:21:21;;;;;;;28.40;15.20;;;4.90;99.90;;;;;;4954422;29;20423;-75
2024/01/19 08:23:50;;;;;;;23.30;14.30;;;4.90;99.90;;;;;;4918357;29;20035;-78
2024/01/19 08:26:19;;;;;;;20.98;11.90;;;4.90;99.90;;;;;;4952436;29;20023;-75
2024/01/19 08:28:46;;;;;;;19.50;11.18;;;4.90;99.90;;;;;;4933295;29;20032;-76
2024/01/19 08:31:13;;;;;;;18.85;11.65;;;4.80;99.90;;;;;;4952012;28;20106;-76
2024/01/19 08:33:39;;;;;;;20.35;12.30;;;4.80;99.90;;;;;;4953682;29;20029;-73
2024/01/19 08:36:05;;;;;;;19.25;12.35;;;4.70;99.90;;;;;;4953954;29;20023;-75
2024/01/19 08:38:31;;;;;;;19.05;12.02;;;4.70;99.90;;;;;;4949085;29;20051;-80
2024/01/19 08:40:57;;;;;;;21.88;12.43;;;4.70;99.90;;;;;;4946815;29;20078;-79
2024/01/19 08:43:31;;;;;;;23.42;13.88;;;4.80;99.90;;;;;;4953814;29;20031;-75
2024/01/19 08:46:03;;;;;;;21.60;13.57;;;4.80;99.90;;;;;;4933423;29;20035;-79
2024/01/19 08:48:30;;;;;;;22.70;13.85;;;4.70;99.90;;;;;;4953352;29;20035;-77
2024/01/19 08:50:57;;;;;;;18.88;11.63;;;4.70;99.90;;;;;;4947739;29;20399;-75
2024/01/19 08:53:23;;;;;;;18.23;11.63;;;4.60;99.90;;;;;;4953487;29;20554;-74
2024/01/19 08:55:48;;;;;;;19.38;10.98;;;4.60;99.90;;;;;;4953835;29;20023;-74
2024/01/19 08:58:14;;;;;;;20.75;10.30;;;4.40;99.90;;;;;;4935015;29;20040;-72
2024/01/19 09:00:40;;;;;;;17.00;9.82;;;4.30;99.90;;;;;;4953447;29;20039;-77
2024/01/19 09:03:06;;;;;;;17.60;10.23;;;4.30;99.90;;;;;;4953765;29;20059;-73
2024/01/19 09:05:33;;;;;;;16.67;9.23;;;4.20;99.90;;;;;;4929944;29;20024;-74
2024/01/19 09:07:59;;;;;;;18.33;9.57;;;4.20;99.90;;;;;;4930441;29;20024;-74
2024/01/19 09:10:25;;;;;;;17.50;9.90;;;4.20;99.90;;;;;;4920930;29;20024;-76
2024/01/19 09:13:06;;;;;;;18.33;9.48;;;4.20;99.90;;;;;;4943124;28;20115;-74
2024/01/19 09:15:32;;;;;;;17.52;10.43;;;4.20;99.90;;;;;;4936607;29;20112;-77
2024/01/19 09:17:58;;;;;;;20.92;11.60;;;4.20;99.90;;;;;;4953713;28;20103;-78
2024/01/19 09:20:24;;;;;;;29.38;17.08;;;4.30;99.90;;;;;;4953240;28;20035;-75
2024/01/19 09:22:50;;;;;;;23.80;14.65;;;4.30;99.90;;;;;;4953176;29;20080;-78
2024/01/19 09:25:16;;;;;;;20.73;12.38;;;4.20;99.90;;;;;;4936734;29;20059;-74
2024/01/19 09:27:42;;;;;;;22.02;13.10;;;4.20;99.90;;;;;;4941108;29;20353;-74
2024/01/19 09:30:08;;;;;;;24.25;14.00;;;4.10;99.90;;;;;;4953457;29;20095;-75
2024/01/19 09:32:34;;;;;;;23.38;14.50;;;4.20;99.90;;;;;;4953361;29;20031;-75
2024/01/19 09:35:00;;;;;;;21.27;11.55;;;4.20;99.90;;;;;;4953320;29;20020;-75
2024/01/19 09:37:26;;;;;;;19.13;10.50;;;4.10;99.90;;;;;;4953625;29;20039;-76
2024/01/19 09:39:52;;;;;;;16.08;9.75;;;4.10;99.90;;;;;;4953409;29;20038;-75
2024/01/19 09:42:33;;;;;;;20.30;11.40;;;4.10;99.90;;;;;;4953753;28;20027;-75
2024/01/19 09:45:04;;;;;;;18.50;10.93;;;4.00;99.90;;;;;;4956695;29;20398;-75
2024/01/19 09:47:49;;;;;;;19.00;10.30;;;3.90;99.90;;;;;;4957044;29;20118;-74
2024/01/19 09:50:20;;;;;;;18.20;10.30;;;3.80;99.90;;;;;;4943270;29;20027;-75
2024/01/19 09:52:58;;;;;;;17.08;10.10;;;3.80;99.90;;;;;;4956272;29;20558;-75
2024/01/19 09:55:26;;;;;;;17.23;10.13;;;3.90;99.90;;;;;;4954627;29;20019;-75
2024/01/19 09:57:52;;;;;;;19.13;10.05;;;3.90;99.90;;;;;;4956466;29;20475;-74
2024/01/19 10:00:28;;;;;;;19.27;11.35;;;3.90;99.90;;;;;;4951369;29;20035;-73
2024/01/19 10:02:57;;;;;;;;;;;3.90;99.90;;;;;;4932798;29;20032;-74
2024/01/19 10:05:23;;;;;;;17.70;10.40;;;3.80;99.90;;;;;;4928268;29;19907;-74
2024/01/19 10:07:55;;;;;;;15.55;9.68;;;3.70;99.90;;;;;;4949427;29;20038;-75
2024/01/19 10:10:21;;;;;;;16.98;9.88;;;3.70;99.90;;;;;;4954249;29;20074;-74
2024/01/19 10:12:47;;;;;;;15.75;9.00;;;3.60;99.90;;;;;;4956129;28;20074;-74
2024/01/19 10:15:15;;;;;;;15.77;8.60;;;3.60;99.90;;;;;;4956306;29;20525;-75
2024/01/19 10:17:45;;;;;;;19.17;9.05;;;3.60;99.90;;;;;;4935568;29;20477;-74
2024/01/19 10:20:15;;;;;;;13.32;8.23;;;3.60;99.90;;;;;;4947496;29;20090;-75
2024/01/19 10:22:42;;;;;;;13.63;7.88;;;3.70;99.90;;;;;;4937005;29;20493;-74
2024/01/19 10:25:10;;;;;;;13.00;7.43;;;3.60;99.90;;;;;;4917606;29;20031;-74
2024/01/19 10:27:54;;;;;;;21.48;11.18;;;3.50;99.90;;;;;;4956270;29;20027;-75
2024/01/19 10:30:24;;;;;;;13.68;6.75;;;3.40;99.90;;;;;;4956263;29;20514;-73
2024/01/19 10:32:52;;;;;;;9.93;5.63;;;3.30;99.90;;;;;;4956069;29;20415;-75
2024/01/19 10:35:20;;;;;;;14.20;8.60;;;3.30;99.90;;;;;;4955974;29;20027;-74
2024/01/19 10:37:46;;;;;;;18.35;9.32;;;3.20;99.90;;;;;;4938408;29;20032;-74
2024/01/19 10:40:29;;;;;;;12.55;7.20;;;3.10;99.90;;;;;;4936727;29;20081;-74
2024/01/19 10:42:58;;;;;;;12.23;6.57;;;3.10;99.90;;;;;;4916825;29;20063;-74
2024/01/19 10:45:29;;;;;;;13.27;6.90;;;3.00;99.90;;;;;;4937691;29;20148;-77
2024/01/19 10:48:01;;;;;;;10.60;6.07;;;3.00;99.90;;;;;;4936751;29;20032;-79
2024/01/19 10:50:28;;;;;;;10.77;5.82;;;2.80;99.90;;;;;;4936795;29;20035;-74
2024/01/19 10:52:59;;;;;;;9.90;6.18;;;2.90;99.90;;;;;;4936584;29;20132;-76
2024/01/19 10:55:29;;;;;;;13.63;8.10;;;2.80;99.90;;;;;;4935597;29;20027;-80
2024/01/19 10:58:04;;;;;;;10.90;6.25;;;2.80;99.90;;;;;;4936319;29;20465;-75
2024/01/19 11:00:31;;;;;;;10.30;6.05;;;2.80;99.90;;;;;;4936422;29;20090;-73
2024/01/19 11:03:02;;;;;;;12.10;6.82;;;2.80;99.90;;;;;;4936806;29;20395;-74
2024/01/19 11:05:29;;;;;;;12.32;5.85;;;2.70;99.90;;;;;;4936294;29;20039;-75
2024/01/19 11:07:57;;;;;;;11.82;6.63;;;2.70;99.90;;;;;;4936587;29;20051;-74
2024/01/19 11:10:27;;;;;;;13.65;7.82;;;2.70;99.90;;;;;;4939469;29;20499;-74
2024/01/19 11:12:59;;;;;;;15.38;8.35;;;2.70;99.90;;;;;;4967572;28;20130;-76
2024/01/19 11:16:00;;;;;;;12.10;7.45;;;2.70;99.90;;;;;;4966973;28;20038;-78
2024/01/19 11:18:28;;;;;;;13.93;7.32;;;2.70;99.90;;;;;;4945271;29;20424;-74
2024/01/19 11:20:54;;;;;;;13.23;8.23;;;2.60;99.90;;;;;;4963667;28;20443;-74
2024/01/19 11:23:20;;;;;;;18.40;9.32;;;2.60;99.90;;;;;;4974774;28;20035;-74
2024/01/19 11:26:14;;;;;;;12.82;6.93;;;2.60;99.90;;;;;;4957922;28;20453;-74
2024/01/19 11:29:09;;;;;;;14.68;8.38;;;2.50;99.90;;;;;;4974473;28;20074;-74
2024/01/19 11:31:38;;;;;;;12.63;7.22;;;2.50;99.90;;;;;;4965988;28;20037;-73
2024/01/19 11:34:04;;;;;;;13.18;7.95;;;2.50;99.90;;;;;;4973652;28;20049;-75
2024/01/19 11:36:39;;;;;;;11.45;7.03;;;2.50;99.90;;;;;;4965265;28;20475;-76
2024/01/19 11:39:13;;;;;;;13.35;7.38;;;2.60;99.90;;;;;;4962543;28;20031;-74
2024/01/19 11:41:46;;;;;;;10.75;5.70;;;2.60;99.90;;;;;;4951598;28;20047;-75
2024/01/19 11:44:47;;;;;;;10.68;6.35;;;2.60;99.90;;;;;;4947691;28;20042;-74
2024/01/19 11:47:46;;;;;;;15.18;9.02;;;2.50;99.90;;;;;;4958354;28;20042;-74
2024/01/19 11:50:15;;;;;;;12.82;8.27;;;2.50;99.90;;;;;;4913899;29;20040;-77
2024/01/19 11:52:43;;;;;;;9.73;5.68;;;2.40;99.90;;;;;;4914107;29;20127;-75
2024/01/19 11:55:42;;;;;;;11.73;7.03;;;2.50;99.90;;;;;;4914385;29;20028;-76
2024/01/19 11:58:39;;;;;;;11.93;7.03;;;2.60;99.90;;;;;;4821919;29;20056;-73
2024/01/19 12:01:07;;;;;;;9.90;6.35;;;2.60;99.90;;;;;;4786848;29;20435;-73
2024/01/19 12:03:41;;;;;;;10.75;5.85;;;2.60;99.90;;;;;;4802567;29;20039;-73
2024/01/19 12:06:10;;;;;;;13.35;6.95;;;2.60;99.90;;;;;;4801777;29;20100;-73
2024/01/19 12:08:36;;;;;;;11.20;6.25;;;2.70;99.90;;;;;;4788393;29;20066;-76
2024/01/19 12:11:14;;;;;;;12.73;7.22;;;2.70;99.90;;;;;;4802766;29;20039;-77
2024/01/19 12:13:47;;;;;;;8.95;5.03;;;2.70;99.90;;;;;;4796227;29;20591;-74
2024/01/19 12:16:20;;;;;;;10.25;5.30;;;2.70;99.90;;;;;;4801134;29;20042;-75
2024/01/19 12:18:46;;;;;;;12.20;7.05;;;2.70;99.90;;;;;;4802693;29;20424;-73
2024/01/19 12:21:12;;;;;;;9.18;5.43;;;2.70;99.90;;;;;;4802619;29;20046;-73
2024/01/19 12:23:39;;;;;;;12.23;6.38;;;2.70;99.90;;;;;;4803023;29;20524;-72
2024/01/19 12:26:18;;;;;;;17.98;7.20;;;2.60;99.90;;;;;;4814255;29;20144;-77
2024/01/19 12:28:52;;;;;;;18.00;8.90;;;2.60;99.90;;;;;;4803124;29;20043;-72
2024/01/19 12:31:30;;;;;;;13.55;7.30;;;2.60;99.90;;;;;;4805822;29;20048;-73
2024/01/19 12:33:56;;;;;;;10.63;5.57;;;2.60;99.90;;;;;;4827221;29;20044;-73
2024/01/19 12:36:25;;;;;;;8.90;5.03;;;2.70;99.90;;;;;;4894842;29;20032;-72
2024/01/19 12:39:06;;;;;;;8.90;4.95;;;2.70;99.90;;;;;;4952057;28;20116;-73
2024/01/19 12:41:33;;;;;;;8.95;4.82;;;2.70;99.90;;;;;;4972997;28;20038;-73